Terminal Aerodrome Forecast
Issued by NWS Charleston, WV

Current Version | Previous Version | Graphics & Text | Print | Product List | Glossary On
Versions: 1 2 3 4 5 6 7 8 9 10 11 12 13 14 15 16 17 18 19 20 21
000
FTUS41 KRLX 230300 AAA
TAFCRW
TAF AMD
KCRW 230323Z 2303/2324 00000KT P6SM BKN035
     FM230800 00000KT P6SM SCT070 BKN200
     FM232000 VRB03KT P6SM BKN090
     FM232300 00000KT P6SM OVC025=

USA.gov is the U.S. government's official web portal to all federal, state and local government web resources and services.